Time;durP1;ratioP1;P1;durP2;ratioP2;P2;SDS_P1;SDS_P2;PMS_P1;PMS_P2;Temp;Humidity;BMP_temperature;BMP_pressure;BME280_temperature;BME280_humidity;BME280_pressure;Samples;Min_cycle;Max_cycle;Signal;HPM_P1;HPM_P2
2022/06/10 00:00:08;;;;;;;4.70;1.58;;;22.50;99.90;;;;;;4241951;27;20217;-74
2022/06/10 00:02:12;;;;;;;3.45;1.60;;;22.50;99.90;;;;;;4224840;27;20267;-74
2022/06/10 00:04:14;;;;;;;4.55;1.73;;;22.50;99.90;;;;;;4232175;27;20217;-74
2022/06/10 00:06:16;;;;;;;4.15;1.50;;;22.50;99.90;;;;;;4229646;28;20259;-74
2022/06/10 00:08:22;;;;;;;2.83;1.55;;;22.50;99.90;;;;;;4232388;27;20694;-74
2022/06/10 00:10:26;;;;;;;4.43;1.83;;;22.50;99.90;;;;;;4229166;27;20290;-74
2022/06/10 00:12:29;;;;;;;4.45;1.70;;;22.40;99.90;;;;;;4228012;27;20260;-74
2022/06/10 00:14:31;;;;;;;4.30;1.60;;;22.50;99.90;;;;;;4227320;28;20255;-74
2022/06/10 00:16:34;;;;;;;4.60;1.58;;;22.50;99.90;;;;;;4227218;28;20267;-74
2022/06/10 00:18:38;;;;;;;4.97;1.92;;;22.50;99.90;;;;;;4223146;27;20218;-74
2022/06/10 00:20:41;;;;;;;3.78;1.60;;;22.50;99.90;;;;;;4229648;27;20267;-74
2022/06/10 00:22:43;;;;;;;3.50;1.83;;;22.50;99.90;;;;;;4231993;27;20666;-74
2022/06/10 00:24:45;;;;;;;3.65;1.70;;;22.50;99.90;;;;;;4227681;28;20225;-74
2022/06/10 00:26:47;;;;;;;4.25;2.08;;;22.40;99.90;;;;;;4226295;28;20274;-74
2022/06/10 00:28:50;;;;;;;3.97;1.73;;;22.50;99.90;;;;;;4229247;27;20237;-74
2022/06/10 00:30:53;;;;;;;5.82;2.00;;;22.40;99.90;;;;;;4223889;28;20262;-74
2022/06/10 00:32:55;;;;;;;4.18;1.98;;;22.50;99.90;;;;;;4227128;28;20275;-74
2022/06/10 00:34:59;;;;;;;3.40;1.60;;;22.40;99.90;;;;;;4226122;27;20222;-74
2022/06/10 00:37:02;;;;;;;4.22;1.70;;;22.50;99.90;;;;;;4227901;28;20209;-74
2022/06/10 00:39:04;;;;;;;5.28;2.10;;;22.40;99.90;;;;;;4227904;28;20545;-74
2022/06/10 00:41:07;;;;;;;4.72;1.98;;;22.40;99.90;;;;;;4229404;27;20229;-74
2022/06/10 00:43:13;;;;;;;4.20;1.92;;;22.50;99.90;;;;;;4225989;27;20259;-74
2022/06/10 00:45:52;;;;;;;4.78;1.98;;;22.40;99.90;;;;;;4227921;28;20218;-74
2022/06/10 00:47:55;;;;;;;5.00;1.92;;;22.40;99.90;;;;;;4228873;27;20215;-74
2022/06/10 00:50:02;;;;;;;4.55;1.98;;;22.40;99.90;;;;;;4229873;27;20237;-74
2022/06/10 00:52:05;;;;;;;4.70;2.00;;;22.40;99.90;;;;;;4229611;27;20663;-74
2022/06/10 00:54:16;;;;;;;7.70;2.15;;;22.40;99.90;;;;;;4232047;27;20695;-74
2022/06/10 00:56:24;;;;;;;4.38;1.75;;;22.40;99.90;;;;;;4228122;28;20600;-74
2022/06/10 00:58:33;;;;;;;3.88;1.83;;;22.40;99.90;;;;;;4228898;27;20217;-74
2022/06/10 01:00:38;;;;;;;4.78;2.03;;;22.40;99.90;;;;;;4226057;28;20282;-74
2022/06/10 01:02:42;;;;;;;7.93;2.20;;;22.40;99.90;;;;;;4237246;27;20217;-74
2022/06/10 01:04:45;;;;;;;5.40;2.08;;;22.40;99.90;;;;;;4229522;27;20213;-74
2022/06/10 01:06:48;;;;;;;7.30;2.45;;;22.40;99.90;;;;;;4230633;27;20221;-74
2022/06/10 01:08:53;;;;;;;2.92;1.65;;;22.40;99.90;;;;;;4225317;28;20619;-74
2022/06/10 01:11:08;;;;;;;4.38;1.92;;;22.40;99.90;;;;;;4223986;28;20222;-74
2022/06/10 01:13:23;;;;;;;4.80;2.22;;;22.40;99.90;;;;;;4225872;28;20217;-74
2022/06/10 01:15:35;;;;;;;4.95;2.35;;;22.40;99.90;;;;;;4225791;28;20225;-74
2022/06/10 01:17:48;;;;;;;5.93;2.00;;;22.40;99.90;;;;;;4227352;28;20205;-74
2022/06/10 01:20:06;;;;;;;3.78;2.05;;;22.30;99.90;;;;;;4226577;28;20250;-74
2022/06/10 01:22:28;;;;;;;5.05;2.25;;;22.40;99.90;;;;;;4225541;28;20262;-74
2022/06/10 01:25:07;;;;;;;4.05;2.00;;;22.40;99.90;;;;;;4225533;28;20218;-74
2022/06/10 01:27:49;;;;;;;4.80;2.20;;;22.40;99.90;;;;;;4225659;28;20230;-74
2022/06/10 01:30:15;;;;;;;3.63;1.90;;;22.30;99.90;;;;;;4210116;28;20232;-74
2022/06/10 01:32:27;;;;;;;3.95;2.10;;;22.30;99.90;;;;;;4226935;28;20222;-74
2022/06/10 01:34:37;;;;;;;4.03;1.70;;;22.30;99.90;;;;;;4227964;28;20221;-74
2022/06/10 01:36:47;;;;;;;4.93;1.90;;;22.30;99.90;;;;;;4223830;28;20213;-74
2022/06/10 01:38:59;;;;;;;5.57;1.95;;;22.30;99.90;;;;;;4216018;28;20217;-74
2022/06/10 01:41:12;;;;;;;4.05;2.03;;;22.30;99.90;;;;;;4225968;28;20263;-74
2022/06/10 01:43:22;;;;;;;5.32;2.25;;;22.30;99.90;;;;;;4221837;28;20220;-74
2022/06/10 01:45:34;;;;;;;5.03;2.20;;;22.30;99.90;;;;;;4227683;28;20972;-74
2022/06/10 01:47:45;;;;;;;4.13;2.00;;;22.30;99.90;;;;;;4227033;28;20206;-74
2022/06/10 01:49:55;;;;;;;3.50;1.90;;;22.30;99.90;;;;;;4227250;28;20283;-74
2022/06/10 01:52:03;;;;;;;5.20;2.03;;;22.30;99.90;;;;;;4226878;28;20213;-74
2022/06/10 01:54:12;;;;;;;4.78;2.38;;;22.30;99.90;;;;;;4224259;28;20209;-74
2022/06/10 01:56:18;;;;;;;5.35;2.25;;;22.30;99.90;;;;;;4224635;28;20270;-74
2022/06/10 01:58:25;;;;;;;5.53;2.00;;;22.30;99.90;;;;;;4225822;28;20210;-74
2022/06/10 02:00:30;;;;;;;5.10;1.90;;;22.30;99.90;;;;;;4225031;28;20268;-74
2022/06/10 02:02:37;;;;;;;4.55;1.92;;;22.30;99.90;;;;;;4224672;28;20661;-74
2022/06/10 02:04:45;;;;;;;5.85;2.45;;;22.30;99.90;;;;;;4226906;28;20214;-74
2022/06/10 02:06:54;;;;;;;5.35;2.13;;;22.30;99.90;;;;;;4224907;28;20270;-74
2022/06/10 02:08:59;;;;;;;4.13;2.17;;;22.30;99.90;;;;;;4226156;28;20236;-74
2022/06/10 02:11:06;;;;;;;5.25;2.10;;;22.30;99.90;;;;;;4225267;28;20397;-74
2022/06/10 02:13:13;;;;;;;4.88;2.13;;;22.30;99.90;;;;;;4225363;28;20267;-74
2022/06/10 02:15:20;;;;;;;6.40;2.35;;;22.30;99.90;;;;;;4223989;28;20314;-74
2022/06/10 02:17:27;;;;;;;4.15;1.70;;;22.30;99.90;;;;;;4224353;28;20271;-74
2022/06/10 02:19:35;;;;;;;6.47;2.33;;;22.30;99.90;;;;;;4226630;28;20215;-74
2022/06/10 02:21:44;;;;;;;5.72;1.67;;;22.30;99.90;;;;;;4226187;28;20221;-74
2022/06/10 02:23:57;;;;;;;5.43;2.50;;;22.30;99.90;;;;;;4226698;28;20210;-74
2022/06/10 02:26:00;;;;;;;5.53;2.00;;;22.30;99.90;;;;;;4226368;28;20221;-74
2022/06/10 02:28:08;;;;;;;5.25;2.42;;;22.30;99.90;;;;;;4222274;28;20622;-74
2022/06/10 02:30:14;;;;;;;4.07;2.03;;;22.30;99.90;;;;;;4223641;28;20307;-74
2022/06/10 02:32:16;;;;;;;6.28;2.30;;;22.20;99.90;;;;;;4226952;28;20267;-74
2022/06/10 02:34:19;;;;;;;3.55;2.00;;;22.30;99.90;;;;;;4224628;28;20333;-74
2022/06/10 02:36:26;;;;;;;5.10;2.42;;;22.30;99.90;;;;;;4224469;28;20218;-74
2022/06/10 02:38:39;;;;;;;4.60;2.08;;;22.20;99.90;;;;;;4226225;28;20213;-74
2022/06/10 02:40:47;;;;;;;5.13;1.92;;;22.20;99.90;;;;;;4225218;28;20270;-74
2022/06/10 02:42:59;;;;;;;3.17;2.25;;;22.20;99.90;;;;;;4224489;28;20263;-74
2022/06/10 02:45:10;;;;;;;6.35;2.15;;;22.20;99.90;;;;;;4222431;28;20221;-74
2022/06/10 02:47:23;;;;;;;4.82;2.05;;;22.20;99.90;;;;;;4224626;28;20229;-74
2022/06/10 02:49:26;;;;;;;4.38;2.00;;;22.20;99.90;;;;;;4225824;28;20275;-74
2022/06/10 02:51:29;;;;;;;3.63;1.73;;;22.30;99.90;;;;;;4225143;28;20217;-74
2022/06/10 02:53:33;;;;;;;4.57;2.17;;;22.20;99.90;;;;;;4228501;28;20270;-74
2022/06/10 02:55:38;;;;;;;3.30;2.20;;;22.20;99.90;;;;;;4227231;28;20218;-74
2022/06/10 03:02:27;;;;;;;5.20;2.42;;;22.30;99.90;;;;;;4228460;27;20202;-74
2022/06/10 03:04:40;;;;;;;4.68;2.17;;;22.20;99.90;;;;;;4228133;28;20221;-74
2022/06/10 03:06:52;;;;;;;4.78;2.42;;;22.20;99.90;;;;;;4226422;28;20251;-74
2022/06/10 03:09:03;;;;;;;4.93;2.20;;;22.20;99.90;;;;;;4224709;28;20295;-74
2022/06/10 03:11:16;;;;;;;5.72;2.70;;;22.20;99.90;;;;;;4210124;28;20771;-74
2022/06/10 03:13:43;;;;;;;5.47;3.15;;;22.20;99.90;;;;;;4210996;28;20267;-74
2022/06/10 03:15:59;;;;;;;5.72;2.50;;;22.20;99.90;;;;;;4215887;28;21676;-74
2022/06/10 03:18:11;;;;;;;5.05;2.53;;;22.20;99.90;;;;;;4211356;28;20651;-74
2022/06/10 03:20:21;;;;;;;5.72;2.67;;;22.20;99.90;;;;;;4210030;28;20219;-74
2022/06/10 03:22:36;;;;;;;6.15;2.67;;;22.20;99.90;;;;;;4211375;28;21544;-74
2022/06/10 03:24:55;;;;;;;5.28;2.38;;;22.20;99.90;;;;;;4207842;28;20660;-74
2022/06/10 03:27:04;;;;;;;4.57;2.40;;;22.20;99.90;;;;;;4213631;28;20210;-74
2022/06/10 03:29:13;;;;;;;4.75;2.55;;;22.20;99.90;;;;;;4211799;28;20217;-74
2022/06/10 03:31:18;;;;;;;5.95;2.78;;;22.20;99.90;;;;;;4211144;28;20279;-74
2022/06/10 03:33:26;;;;;;;4.03;2.65;;;22.20;99.90;;;;;;4211152;28;20234;-74
2022/06/10 03:35:33;;;;;;;4.03;2.58;;;22.20;99.90;;;;;;4211871;28;20226;-74
2022/06/10 03:37:37;;;;;;;5.63;2.83;;;22.20;99.90;;;;;;4208988;28;20606;-74
2022/06/10 03:39:41;;;;;;;4.55;2.60;;;22.20;99.90;;;;;;4213445;28;20259;-74
2022/06/10 03:41:59;;;;;;;6.30;2.63;;;22.20;99.90;;;;;;4209031;28;20210;-74
2022/06/10 03:44:07;;;;;;;6.60;2.85;;;22.20;99.90;;;;;;4212547;28;20218;-74
2022/06/10 03:46:12;;;;;;;6.25;2.63;;;22.10;99.90;;;;;;4210038;28;20296;-74
2022/06/10 03:48:17;;;;;;;5.10;2.53;;;22.20;99.90;;;;;;4210739;28;21719;-74
2022/06/10 03:50:24;;;;;;;4.40;2.60;;;22.20;99.90;;;;;;4209587;28;20714;-74
2022/06/10 03:52:30;;;;;;;5.47;2.45;;;22.20;99.90;;;;;;4211173;28;20298;-74
2022/06/10 03:54:32;;;;;;;4.75;2.58;;;22.20;99.90;;;;;;4210733;28;20222;-74
2022/06/10 03:56:36;;;;;;;4.50;2.70;;;22.10;99.90;;;;;;4208367;28;20212;-74
2022/06/10 03:58:39;;;;;;;9.05;2.72;;;22.20;99.90;;;;;;4209364;28;20217;-74
2022/06/10 04:00:42;;;;;;;4.80;2.65;;;22.10;99.90;;;;;;4213256;28;20218;-74
2022/06/10 04:02:44;;;;;;;5.65;2.90;;;22.10;99.90;;;;;;4211771;28;20260;-74
2022/06/10 04:04:46;;;;;;;5.07;2.58;;;22.10;99.90;;;;;;4210030;28;20276;-74
2022/06/10 04:06:48;;;;;;;5.55;2.70;;;22.10;99.90;;;;;;4210665;28;20878;-74
2022/06/10 04:08:51;;;;;;;5.65;2.58;;;22.10;99.90;;;;;;4210201;28;20222;-74
2022/06/10 04:10:53;;;;;;;5.75;2.67;;;22.10;99.90;;;;;;4214233;28;20735;-74
2022/06/10 04:12:59;;;;;;;4.88;2.60;;;22.10;99.90;;;;;;4217966;28;20297;-74
2022/06/10 04:15:01;;;;;;;5.97;2.90;;;22.10;99.90;;;;;;4215453;28;20643;-74
2022/06/10 04:17:05;;;;;;;5.38;2.60;;;22.10;99.90;;;;;;4215131;28;20222;-74
2022/06/10 04:19:07;;;;;;;6.28;2.83;;;22.10;99.90;;;;;;4213825;28;20708;-74
2022/06/10 04:21:09;;;;;;;7.28;2.97;;;22.20;99.90;;;;;;4210822;28;20823;-74
2022/06/10 04:23:13;;;;;;;5.95;2.70;;;22.10;99.90;;;;;;4216722;28;20332;-74
2022/06/10 04:25:15;;;;;;;6.20;3.00;;;22.10;99.90;;;;;;4216579;28;20678;-74
2022/06/10 04:27:19;;;;;;;5.60;2.78;;;22.10;99.90;;;;;;4210748;28;20264;-74
2022/06/10 04:29:22;;;;;;;7.10;3.10;;;22.10;99.90;;;;;;4213262;28;20571;-74
2022/06/10 04:31:25;;;;;;;6.65;2.97;;;22.10;99.90;;;;;;4214081;28;20283;-74
2022/06/10 04:33:27;;;;;;;5.85;3.03;;;22.10;99.90;;;;;;4209646;28;20264;-74
2022/06/10 04:35:31;;;;;;;8.68;3.17;;;22.10;99.90;;;;;;4215006;28;20223;-74
2022/06/10 04:37:34;;;;;;;5.43;2.72;;;22.20;99.90;;;;;;4211122;28;20211;-74
2022/06/10 04:39:36;;;;;;;5.03;2.67;;;22.10;99.90;;;;;;4212286;28;20215;-74
2022/06/10 04:41:39;;;;;;;6.43;2.80;;;22.10;99.90;;;;;;4214611;28;20215;-74
2022/06/10 04:43:41;;;;;;;6.75;2.85;;;22.10;99.90;;;;;;4214713;28;20217;-74
2022/06/10 04:45:48;;;;;;;4.20;2.40;;;22.10;99.90;;;;;;4214845;28;20215;-74
2022/06/10 04:47:54;;;;;;;5.20;2.40;;;22.10;99.90;;;;;;4208846;28;20226;-74
2022/06/10 04:49:59;;;;;;;7.07;2.70;;;22.10;99.90;;;;;;4214317;28;20218;-74
2022/06/10 04:52:02;;;;;;;4.55;2.25;;;22.10;99.90;;;;;;4215002;28;20714;-74
2022/06/10 04:54:05;;;;;;;3.45;2.20;;;22.10;99.90;;;;;;4207148;28;20332;-74
2022/06/10 04:56:08;;;;;;;4.25;2.70;;;22.10;99.90;;;;;;4213917;28;20232;-74
2022/06/10 04:58:11;;;;;;;6.63;2.70;;;22.10;99.90;;;;;;4209083;28;20736;-74
2022/06/10 05:00:16;;;;;;;6.28;2.83;;;22.10;99.90;;;;;;4211945;28;20272;-74
2022/06/10 05:02:21;;;;;;;5.32;2.47;;;22.10;99.90;;;;;;4208216;28;20630;-74
2022/06/10 05:04:23;;;;;;;4.63;2.38;;;22.10;99.90;;;;;;4212121;28;20218;-74
2022/06/10 05:06:26;;;;;;;4.80;2.38;;;22.10;99.90;;;;;;4209455;28;20219;-74
2022/06/10 05:08:28;;;;;;;4.20;2.30;;;22.10;99.90;;;;;;4214282;28;20221;-74
2022/06/10 05:10:31;;;;;;;5.22;2.75;;;22.10;99.90;;;;;;4217236;28;20238;-74
2022/06/10 05:12:34;;;;;;;3.60;2.13;;;22.10;99.90;;;;;;4214641;28;20238;-74
2022/06/10 05:14:36;;;;;;;4.80;2.58;;;22.10;99.90;;;;;;4211509;28;20218;-74
2022/06/10 05:16:38;;;;;;;5.65;2.90;;;22.10;99.90;;;;;;4211989;28;20219;-74
2022/06/10 05:18:42;;;;;;;4.38;2.50;;;22.20;99.90;;;;;;4211850;28;20267;-74
2022/06/10 05:20:45;;;;;;;5.47;2.42;;;22.20;99.90;;;;;;4209743;28;20223;-74
2022/06/10 05:22:48;;;;;;;7.43;2.97;;;22.10;99.90;;;;;;4196659;28;20219;-74
2022/06/10 05:24:50;;;;;;;8.07;2.90;;;22.10;99.90;;;;;;4209677;28;20214;-74
2022/06/10 05:26:52;;;;;;;4.70;2.40;;;22.20;99.90;;;;;;4211797;28;20226;-74
2022/06/10 05:28:54;;;;;;;6.43;2.70;;;22.20;99.90;;;;;;4214746;28;20223;-74
2022/06/10 05:30:57;;;;;;;5.90;2.70;;;22.20;99.90;;;;;;4210572;28;20218;-74
2022/06/10 05:33:00;;;;;;;5.70;2.55;;;22.20;99.90;;;;;;4217362;28;20219;-74
2022/06/10 05:35:04;;;;;;;3.80;2.05;;;22.20;99.90;;;;;;4211547;28;20218;-74
2022/06/10 05:37:06;;;;;;;4.38;2.45;;;22.20;99.90;;;;;;4214914;28;20272;-74
2022/06/10 05:39:09;;;;;;;6.25;2.40;;;22.20;99.90;;;;;;4211957;28;20282;-74
2022/06/10 05:43:31;;;;;;;5.07;2.58;;;22.20;99.90;;;;;;4212857;28;20195;-74
2022/06/10 05:45:33;;;;;;;4.22;2.50;;;22.20;99.90;;;;;;4213240;28;20261;-74
2022/06/10 05:47:37;;;;;;;6.22;2.88;;;22.20;99.90;;;;;;4209655;28;20222;-74
2022/06/10 05:49:42;;;;;;;5.75;2.47;;;22.20;99.90;;;;;;4209344;28;20215;-74
2022/06/10 05:51:45;;;;;;;5.07;2.28;;;22.20;99.90;;;;;;4206517;28;20238;-74
2022/06/10 05:53:48;;;;;;;4.32;2.25;;;22.20;99.90;;;;;;4210455;28;20222;-74
2022/06/10 05:55:50;;;;;;;5.25;2.35;;;22.20;99.90;;;;;;4208691;28;20613;-74
2022/06/10 05:57:53;;;;;;;4.07;2.08;;;22.20;99.90;;;;;;4213658;28;20215;-74
2022/06/10 05:59:55;;;;;;;4.43;2.40;;;22.20;99.90;;;;;;4214456;28;20722;-74
2022/06/10 06:01:58;;;;;;;4.68;2.50;;;22.20;99.90;;;;;;4210119;28;21168;-74
2022/06/10 06:04:00;;;;;;;4.53;2.30;;;22.20;99.90;;;;;;4214330;28;20668;-74
2022/06/10 06:06:02;;;;;;;5.75;2.53;;;22.20;99.90;;;;;;4214323;28;20217;-74
2022/06/10 06:08:06;;;;;;;5.35;2.50;;;22.20;99.90;;;;;;4215871;28;20285;-74
2022/06/10 06:10:12;;;;;;;4.75;2.28;;;22.20;99.90;;;;;;4209979;28;20779;-74
2022/06/10 06:12:14;;;;;;;3.42;2.03;;;22.20;99.90;;;;;;4205586;28;20238;-74
2022/06/10 06:14:18;;;;;;;5.43;2.45;;;22.20;99.90;;;;;;4208937;28;20210;-74
2022/06/10 06:16:21;;;;;;;3.58;2.22;;;22.20;99.90;;;;;;4206477;28;20250;-74
2022/06/10 06:18:23;;;;;;;4.15;2.08;;;22.20;99.90;;;;;;4208662;28;20287;-74
2022/06/10 06:20:26;;;;;;;5.97;2.53;;;22.30;99.90;;;;;;4207516;28;20218;-74
2022/06/10 06:22:28;;;;;;;5.38;2.17;;;22.20;99.90;;;;;;4208294;28;20218;-74
2022/06/10 06:24:33;;;;;;;5.47;2.35;;;22.30;99.90;;;;;;4208264;28;20218;-74
2022/06/10 06:26:35;;;;;;;3.22;2.13;;;22.30;99.90;;;;;;4207163;28;20263;-74
2022/06/10 06:28:38;;;;;;;6.03;2.50;;;22.30;99.90;;;;;;4208699;28;20215;-74
2022/06/10 06:30:40;;;;;;;5.65;2.40;;;22.30;99.90;;;;;;4207797;28;20275;-74
2022/06/10 06:32:42;;;;;;;5.47;2.47;;;22.30;99.90;;;;;;4208331;28;20234;-74
2022/06/10 06:34:45;;;;;;;3.55;1.98;;;22.30;99.90;;;;;;4206051;28;20638;-74
2022/06/10 06:36:49;;;;;;;3.80;2.03;;;22.30;99.90;;;;;;4204391;28;20223;-74
2022/06/10 06:38:52;;;;;;;5.88;2.35;;;22.30;99.90;;;;;;4207569;28;20222;-74
2022/06/10 06:40:55;;;;;;;3.05;2.05;;;22.30;99.90;;;;;;4207618;28;20449;-74
2022/06/10 06:42:58;;;;;;;4.28;2.45;;;22.30;99.90;;;;;;4206840;28;20210;-74
2022/06/10 06:45:00;;;;;;;4.78;2.10;;;22.30;99.90;;;;;;4206605;28;20279;-74
2022/06/10 06:47:02;;;;;;;5.25;1.88;;;22.30;99.90;;;;;;4206963;28;20647;-74
2022/06/10 06:49:08;;;;;;;5.43;2.20;;;22.30;99.90;;;;;;4207798;28;20222;-74
2022/06/10 06:51:11;;;;;;;3.88;1.90;;;22.30;99.90;;;;;;4209265;28;20222;-74
2022/06/10 06:53:13;;;;;;;3.65;1.67;;;22.30;99.90;;;;;;4207613;28;20281;-74
2022/06/10 06:55:16;;;;;;;4.32;1.90;;;22.30;99.90;;;;;;4208333;28;20267;-74
2022/06/10 06:57:20;;;;;;;5.78;2.40;;;22.30;99.90;;;;;;4207452;28;20331;-74
2022/06/10 06:59:22;;;;;;;5.35;2.08;;;22.30;99.90;;;;;;4206953;28;20272;-74
2022/06/10 07:01:25;;;;;;;4.40;2.33;;;22.40;99.90;;;;;;4205959;28;20248;-74
2022/06/10 07:03:27;;;;;;;5.57;2.08;;;22.40;99.90;;;;;;4208152;28;20215;-74
2022/06/10 07:05:31;;;;;;;3.63;1.80;;;22.40;99.90;;;;;;4207869;28;20262;-74
2022/06/10 07:07:33;;;;;;;3.78;1.95;;;22.30;99.90;;;;;;4205278;28;20272;-74
2022/06/10 07:09:35;;;;;;;4.03;2.10;;;22.40;99.90;;;;;;4215466;28;20279;-74
2022/06/10 07:11:39;;;;;;;2.97;1.77;;;22.40;99.90;;;;;;4226952;28;20221;-74
2022/06/10 07:13:43;;;;;;;6.10;2.40;;;22.40;99.90;;;;;;4232327;28;20274;-74
2022/06/10 07:15:45;;;;;;;2.97;1.80;;;22.40;99.90;;;;;;4216538;28;20309;-74
2022/06/10 07:17:48;;;;;;;3.63;2.03;;;22.40;99.90;;;;;;4223445;28;20271;-74
2022/06/10 07:19:52;;;;;;;3.90;2.00;;;22.40;99.90;;;;;;4224728;28;20210;-74
2022/06/10 07:21:54;;;;;;;4.85;2.00;;;22.40;99.90;;;;;;4224593;28;20259;-74
2022/06/10 07:23:56;;;;;;;3.92;2.00;;;22.40;99.90;;;;;;4222692;28;20214;-74
2022/06/10 07:25:59;;;;;;;4.53;1.90;;;22.40;99.90;;;;;;4225184;28;20259;-74
2022/06/10 07:28:02;;;;;;;4.78;1.90;;;22.40;99.90;;;;;;4224771;28;20218;-74
2022/06/10 07:30:08;;;;;;;4.13;2.00;;;22.40;99.90;;;;;;4223754;28;20218;-74
2022/06/10 07:32:11;;;;;;;4.30;2.20;;;22.40;99.90;;;;;;4224100;28;20330;-74
2022/06/10 07:34:15;;;;;;;3.50;1.70;;;22.50;99.90;;;;;;4222653;28;20629;-74
2022/06/10 07:36:17;;;;;;;5.68;1.90;;;22.40;99.90;;;;;;4223836;28;20221;-74
2022/06/10 07:38:19;;;;;;;2.50;1.73;;;22.40;99.90;;;;;;4218527;28;20279;-74
2022/06/10 07:42:46;;;;;;;4.78;2.13;;;22.50;99.90;;;;;;4226215;27;20186;-74
2022/06/10 07:44:48;;;;;;;4.63;1.98;;;22.40;99.90;;;;;;4225483;28;20210;-74
2022/06/10 07:46:53;;;;;;;4.05;2.20;;;22.50;99.90;;;;;;4226419;28;20734;-74
2022/06/10 07:48:56;;;;;;;4.53;2.03;;;22.50;99.90;;;;;;4225231;27;20225;-74
2022/06/10 07:50:58;;;;;;;4.90;2.17;;;22.50;99.90;;;;;;4225952;28;20218;-74
2022/06/10 07:53:00;;;;;;;3.83;1.73;;;22.50;99.90;;;;;;4218201;28;20237;-74
2022/06/10 07:55:03;;;;;;;4.40;2.15;;;22.50;99.90;;;;;;4211565;28;20259;-74
2022/06/10 07:57:08;;;;;;;3.58;1.80;;;22.50;99.90;;;;;;4217667;28;20299;-73
2022/06/10 07:59:11;;;;;;;7.85;2.28;;;22.50;99.90;;;;;;4221833;27;20267;-74
2022/06/10 08:01:13;;;;;;;7.88;2.25;;;22.40;99.90;;;;;;4224044;28;20218;-74
2022/06/10 08:03:17;;;;;;;6.68;2.08;;;22.50;99.90;;;;;;4225080;27;20214;-74
2022/06/10 08:05:21;;;;;;;6.28;2.30;;;22.50;99.90;;;;;;4218345;27;20218;-74
2022/06/10 08:07:23;;;;;;;7.15;2.13;;;22.40;99.90;;;;;;4225040;28;20263;-74
2022/06/10 08:09:25;;;;;;;9.40;2.78;;;22.40;99.90;;;;;;4217853;28;20238;-74
2022/06/10 08:11:28;;;;;;;8.60;3.28;;;22.40;99.90;;;;;;4210083;28;20211;-75
2022/06/10 08:13:30;;;;;;;7.55;2.30;;;22.40;99.90;;;;;;4209421;28;20289;-75
2022/06/10 08:15:34;;;;;;;8.02;2.85;;;22.40;99.90;;;;;;4209608;28;20214;-74
2022/06/10 08:17:36;;;;;;;6.70;2.53;;;22.40;99.90;;;;;;4209719;28;20235;-74
2022/06/10 08:19:40;;;;;;;9.48;2.67;;;22.40;99.90;;;;;;4208115;28;20215;-74
2022/06/10 08:24:01;;;;;;;6.22;2.67;;;22.40;99.90;;;;;;4172378;28;20259;-75
2022/06/10 08:26:06;;;;;;;7.53;2.40;;;22.40;99.90;;;;;;4209237;28;20210;-74
2022/06/10 08:28:09;;;;;;;7.13;2.58;;;22.40;99.90;;;;;;4209162;28;20206;-75
2022/06/10 08:30:16;;;;;;;6.93;2.65;;;22.40;99.90;;;;;;4210138;28;20268;-75
2022/06/10 08:32:18;;;;;;;9.60;3.33;;;22.40;99.90;;;;;;4208582;28;20272;-75
2022/06/10 08:34:20;;;;;;;6.90;2.88;;;22.40;99.90;;;;;;4208971;28;20627;-75
2022/06/10 08:36:24;;;;;;;7.90;2.75;;;22.40;99.90;;;;;;4206609;28;20280;-74
2022/06/10 08:38:27;;;;;;;6.28;2.45;;;22.50;99.90;;;;;;4209285;28;20280;-74
2022/06/10 08:40:41;;;;;;;5.68;2.72;;;22.50;99.90;;;;;;4208821;28;20215;-74
2022/06/10 08:42:43;;;;;;;8.25;3.42;;;22.50;99.90;;;;;;4207858;28;20222;-74
2022/06/10 08:44:50;;;;;;;9.32;2.90;;;22.60;99.90;;;;;;4209554;28;20219;-74
2022/06/10 08:47:34;;;;;;;7.40;2.67;;;22.50;99.90;;;;;;4209948;28;20222;-75
2022/06/10 08:50:03;;;;;;;7.40;3.17;;;22.50;99.90;;;;;;4205591;28;20271;-74
2022/06/10 08:52:16;;;;;;;7.53;2.83;;;22.50;99.90;;;;;;4203361;28;20219;-75
2022/06/10 08:54:25;;;;;;;8.52;3.00;;;22.60;99.90;;;;;;4207263;28;20291;-75
2022/06/10 08:56:33;;;;;;;7.13;2.20;;;22.60;99.90;;;;;;4209874;28;20257;-75
2022/06/10 08:58:41;;;;;;;6.78;2.58;;;22.60;99.90;;;;;;4207757;28;20218;-74
2022/06/10 09:00:45;;;;;;;4.45;2.70;;;22.60;99.90;;;;;;4206841;28;20213;-73
2022/06/10 09:02:53;;;;;;;7.60;2.53;;;22.60;99.90;;;;;;4207264;28;20280;-74
2022/06/10 09:05:01;;;;;;;6.07;2.08;;;22.60;99.90;;;;;;4207745;28;20609;-74
2022/06/10 09:07:11;;;;;;;7.22;2.50;;;22.60;99.90;;;;;;4206686;28;20243;-74
2022/06/10 09:09:16;;;;;;;7.15;2.60;;;22.60;99.90;;;;;;4209379;28;20638;-74
2022/06/10 09:11:25;;;;;;;5.53;2.60;;;22.60;99.90;;;;;;4206972;28;20246;-80
2022/06/10 09:13:37;;;;;;;5.53;2.20;;;22.60;99.90;;;;;;4210367;28;20306;-80
2022/06/10 09:15:49;;;;;;;5.82;2.53;;;22.60;99.90;;;;;;4211556;28;20605;-79
2022/06/10 09:17:58;;;;;;;6.85;2.58;;;22.70;99.90;;;;;;4207642;28;20268;-81
2022/06/10 09:20:11;;;;;;;5.38;2.40;;;22.70;99.90;;;;;;4209941;28;20259;-77
2022/06/10 09:22:25;;;;;;;8.38;2.97;;;22.70;99.90;;;;;;4209342;28;20214;-80
2022/06/10 09:24:35;;;;;;;4.43;2.17;;;22.70;99.90;;;;;;4213042;28;20222;-80
2022/06/10 09:26:42;;;;;;;6.43;2.35;;;22.70;99.90;;;;;;4211835;28;20717;-81
2022/06/10 09:28:45;;;;;;;5.10;2.25;;;22.70;99.90;;;;;;4208425;28;20222;-82
2022/06/10 09:30:57;;;;;;;4.97;2.55;;;22.70;99.90;;;;;;4210605;28;20226;-82
2022/06/10 09:33:07;;;;;;;7.57;2.40;;;22.70;99.90;;;;;;4206453;28;20215;-81
2022/06/10 09:35:17;;;;;;;6.72;2.33;;;22.70;99.90;;;;;;4207753;28;20263;-80
2022/06/10 09:37:31;;;;;;;4.60;2.60;;;22.70;99.90;;;;;;4209030;28;20218;-80
2022/06/10 09:42:08;;;;;;;5.20;2.28;;;22.70;99.90;;;;;;4210597;28;20195;-79
2022/06/10 09:44:22;;;;;;;5.78;2.20;;;22.80;99.90;;;;;;4207656;28;20239;-80
2022/06/10 09:46:53;;;;;;;7.88;2.70;;;22.70;99.90;;;;;;4208559;28;20745;-80
2022/06/10 09:49:12;;;;;;;5.43;2.03;;;22.80;99.90;;;;;;4214529;28;20302;-80
2022/06/10 09:51:28;;;;;;;7.70;2.42;;;22.80;99.90;;;;;;4210343;28;20259;-81
2022/06/10 09:53:47;;;;;;;8.70;2.47;;;22.80;99.90;;;;;;4208121;28;20259;-81
2022/06/10 09:56:02;;;;;;;6.00;2.80;;;22.80;99.90;;;;;;4209917;28;20246;-80
2022/06/10 09:58:24;;;;;;;6.38;2.47;;;22.80;99.90;;;;;;4213822;28;20209;-81
2022/06/10 10:00:34;;;;;;;6.88;3.08;;;22.80;99.90;;;;;;4209491;28;20683;-79
2022/06/10 10:02:42;;;;;;;7.75;2.45;;;22.80;99.90;;;;;;4212410;28;20250;-79
2022/06/10 10:05:11;;;;;;;7.75;2.65;;;22.80;99.90;;;;;;4213203;28;20262;-79
2022/06/10 10:07:22;;;;;;;5.53;2.80;;;22.80;99.90;;;;;;4206145;28;20272;-82
2022/06/10 10:09:49;;;;;;;5.22;2.50;;;22.80;99.90;;;;;;4211833;27;20237;-80
2022/06/10 10:12:01;;;;;;;6.30;2.90;;;22.80;99.90;;;;;;4224694;27;20218;-82
2022/06/10 10:14:12;;;;;;;10.40;3.20;;;22.80;99.90;;;;;;4223788;27;20643;-81
2022/06/10 10:16:27;;;;;;;8.65;3.13;;;22.80;99.90;;;;;;4226559;27;20214;-80
2022/06/10 10:18:48;;;;;;;10.35;3.10;;;22.80;99.90;;;;;;4225729;28;20258;-81
2022/06/10 10:21:11;;;;;;;8.45;3.17;;;22.80;99.90;;;;;;4231412;27;20210;-81
2022/06/10 10:23:16;;;;;;;7.80;3.10;;;22.80;99.90;;;;;;4226387;28;20221;-81
2022/06/10 10:25:23;;;;;;;6.20;2.95;;;22.80;99.90;;;;;;4225791;27;20213;-80
2022/06/10 10:27:31;;;;;;;6.68;3.20;;;22.80;99.90;;;;;;4223457;27;20262;-81
2022/06/10 10:29:40;;;;;;;8.80;3.58;;;22.80;99.90;;;;;;4228926;27;20209;-80
2022/06/10 10:31:49;;;;;;;10.13;3.42;;;22.80;99.90;;;;;;4223241;28;20665;-81
2022/06/10 10:33:52;;;;;;;7.18;3.47;;;22.90;99.90;;;;;;4225355;28;20217;-81
2022/06/10 10:35:57;;;;;;;7.75;3.25;;;22.80;99.90;;;;;;4219681;27;20221;-80
2022/06/10 10:38:02;;;;;;;9.73;3.85;;;22.80;99.90;;;;;;4224173;27;20314;-75
2022/06/10 10:40:08;;;;;;;14.57;4.75;;;22.60;99.90;;;;;;4219356;28;20244;-75
2022/06/10 10:42:18;;;;;;;10.13;5.22;;;22.60;99.90;;;;;;4224234;27;20673;-75
2022/06/10 10:44:38;;;;;;;13.25;5.53;;;22.50;99.90;;;;;;4223478;28;20205;-76
2022/06/10 10:46:57;;;;;;;10.60;5.15;;;22.40;99.90;;;;;;4222192;28;20242;-75
2022/06/10 10:49:04;;;;;;;13.55;5.97;;;22.40;99.90;;;;;;4224352;28;20205;-76
2022/06/10 10:51:20;;;;;;;10.45;5.32;;;22.40;99.90;;;;;;4222528;28;20259;-73
2022/06/10 10:53:27;;;;;;;10.57;5.45;;;22.50;99.90;;;;;;4219388;28;20222;-76
2022/06/10 10:55:34;;;;;;;12.73;5.70;;;22.50;99.90;;;;;;4218344;28;20678;-75
2022/06/10 10:57:41;;;;;;;14.65;5.43;;;22.70;99.90;;;;;;4219179;28;20210;-75
2022/06/10 10:59:45;;;;;;;10.38;5.53;;;22.80;99.90;;;;;;4221368;28;20279;-75
2022/06/10 11:01:54;;;;;;;11.80;6.03;;;22.80;99.90;;;;;;4222235;28;20214;-75
2022/06/10 11:03:57;;;;;;;9.40;4.82;;;22.90;99.90;;;;;;4218906;28;20228;-75
2022/06/10 11:06:01;;;;;;;11.45;5.30;;;23.00;99.90;;;;;;4225175;28;20217;-75
2022/06/10 11:08:23;;;;;;;10.35;5.55;;;23.00;99.90;;;;;;4221218;28;20210;-75
2022/06/10 11:10:26;;;;;;;10.00;4.60;;;23.00;99.90;;;;;;4227120;28;20635;-75
2022/06/10 11:12:28;;;;;;;11.88;5.45;;;23.00;99.90;;;;;;4229277;27;20225;-74